createdAt,value
2023-03-26T00:00:21.513Z,100724.41
2023-03-26T00:00:54.268Z,100724.75
2023-03-26T00:01:27.481Z,100727.53
2023-03-26T00:01:59.100Z,100724.41
2023-03-26T00:02:30.744Z,100722.47
2023-03-26T00:03:03.110Z,100728.31
2023-03-26T00:03:35.327Z,100726.75
2023-03-26T00:04:07.484Z,100726.75
2023-03-26T00:04:38.976Z,100725.19
2023-03-26T00:05:10.546Z,100723.25
2023-03-26T00:05:42.208Z,100735.31
2023-03-26T00:06:16.943Z,100731.03
2023-03-26T00:06:50.978Z,100725.19
2023-03-26T00:07:22.638Z,100731.75
2023-03-26T00:07:54.025Z,100727.13
2023-03-26T00:08:25.444Z,100724.31
2023-03-26T00:08:58.349Z,100723.97
2023-03-26T00:09:29.916Z,100720.81
2023-03-26T00:10:01.398Z,100723.53
2023-03-26T00:10:33.218Z,100727.47
2023-03-26T00:11:06.634Z,100720.13
2023-03-26T00:11:38.117Z,100721.34
2023-03-26T00:12:09.728Z,100718.19
2023-03-26T00:12:41.434Z,100719.75
2023-03-26T00:13:12.870Z,100722.03
2023-03-26T00:13:44.990Z,100719.41
2023-03-26T00:14:17.551Z,100718.19
2023-03-26T00:14:49.382Z,100718.25
2023-03-26T00:15:20.746Z,100720.13
2023-03-26T00:15:53.088Z,100719.75
2023-03-26T00:16:28.147Z,100721.34
2023-03-26T00:16:59.648Z,100708.13
2023-03-26T00:17:31.075Z,100716.25
2023-03-26T00:18:03.585Z,100715.13
2023-03-26T00:18:35.058Z,100714.34
2023-03-26T00:19:06.582Z,100711.19
2023-03-26T00:19:38.114Z,100717.47
2023-03-26T00:20:09.739Z,100715.91
2023-03-26T00:20:41.521Z,100717.84
2023-03-26T00:21:17.869Z,100715.91
2023-03-26T00:21:49.499Z,100723.69
2023-03-26T00:22:21.028Z,100712.41
2023-03-26T00:22:53.457Z,100715.47
2023-03-26T00:23:25.580Z,100717.47
2023-03-26T00:24:06.862Z,100721.75
2023-03-26T00:24:39.490Z,100716.34
2023-03-26T00:25:11.173Z,100719.06
2023-03-26T00:25:43.431Z,100712.84
2023-03-26T00:26:17.460Z,100718.25
2023-03-26T00:26:53.301Z,100717.13
2023-03-26T00:27:25.311Z,100709.34
2023-03-26T00:27:57.307Z,100711.28
2023-03-26T00:28:29.712Z,100711.63
2023-03-26T00:29:03.278Z,100710.06
2023-03-26T00:29:35.942Z,100704.28
2023-03-26T00:30:07.912Z,100707.78
2023-03-26T00:31:31.370Z,100710.47
2023-03-26T00:32:02.874Z,100707.78
2023-03-26T00:32:34.381Z,100715.91
2023-03-26T00:33:07.616Z,100717.06
2023-03-26T00:33:40.624Z,100719.75
2023-03-26T00:34:13.573Z,100717.41
2023-03-26T00:34:46.052Z,100718.53
2023-03-26T00:35:17.625Z,100709.63
2023-03-26T00:35:53.923Z,100720.91
2023-03-26T00:36:26.720Z,100713.91
2023-03-26T00:37:02.536Z,100717.41
2023-03-26T00:37:33.987Z,100714.69
2023-03-26T00:38:05.384Z,100707.34
2023-03-26T00:38:38.994Z,100715.47
2023-03-26T00:39:10.646Z,100703.50
2023-03-26T00:39:42.773Z,100700.00
2023-03-26T00:40:14.302Z,100701.47
2023-03-26T00:40:48.224Z,100702.63
2023-03-26T00:41:25.526Z,100692.56
2023-03-26T00:41:56.994Z,100693.31
2023-03-26T00:42:29.443Z,100702.63
2023-03-26T00:43:02.392Z,100701.06
2023-03-26T00:43:36.136Z,100702.22
2023-03-26T00:44:07.555Z,100690.94
2023-03-26T00:44:38.948Z,100690.59
2023-03-26T00:45:11.184Z,100694.44
2023-03-26T00:45:42.717Z,100693.66
2023-03-26T00:46:14.480Z,100688.22
2023-03-26T00:46:46.227Z,100690.16
2023-03-26T00:47:17.775Z,100687.44
2023-03-26T00:47:49.390Z,100690.94
2023-03-26T00:48:31.326Z,100689.81
2023-03-26T00:49:11.092Z,100689.38
2023-03-26T00:49:42.653Z,100684.75
2023-03-26T00:50:16.259Z,100685.53
2023-03-26T00:50:48.740Z,100683.94
2023-03-26T00:51:21.311Z,100683.94
2023-03-26T00:51:53.050Z,100688.59
2023-03-26T00:52:24.804Z,100685.88
2023-03-26T00:52:56.293Z,100685.44
2023-03-26T00:53:27.689Z,100679.59
2023-03-26T00:53:59.219Z,100680.75
2023-03-26T00:54:30.662Z,100677.25
2023-03-26T00:55:02.492Z,100670.25
2023-03-26T00:55:34.465Z,100678.81
2023-03-26T00:56:07.152Z,100679.25
2023-03-26T00:56:38.795Z,100684.22
2023-03-26T00:57:10.635Z,100686.16
2023-03-26T00:57:42.109Z,100683.88
2023-03-26T00:58:14.642Z,100685.03
2023-03-26T00:58:47.544Z,100679.94
2023-03-26T00:59:19.032Z,100678.03
2023-03-26T00:59:50.804Z,100675.31
2023-03-26T01:00:31.758Z,100669.53
2023-03-26T01:01:07.007Z,100675.75
2023-03-26T01:01:38.455Z,100672.16
2023-03-26T01:02:17.020Z,100673.75
2023-03-26T01:02:48.707Z,100674.97
2023-03-26T01:03:26.975Z,100680.31
2023-03-26T01:04:24.327Z,100684.59
2023-03-26T01:05:02.689Z,100674.88
2023-03-26T01:05:34.223Z,100683.03
2023-03-26T01:06:11.259Z,100683.03
2023-03-26T01:06:45.325Z,100679.88
2023-03-26T01:07:21.731Z,100679.88
2023-03-26T01:07:53.128Z,100680.66
2023-03-26T01:08:33.292Z,100683.38
2023-03-26T01:09:16.837Z,100675.94
2023-03-26T01:09:51.251Z,100679.09
2023-03-26T01:10:22.676Z,100679.44
2023-03-26T01:11:02.990Z,100674.81
2023-03-26T01:11:35.902Z,100674.03
2023-03-26T01:12:13.370Z,100673.22
2023-03-26T01:12:44.798Z,100676.72
2023-03-26T01:13:22.141Z,100672.81
2023-03-26T01:14:01.314Z,100674.38
2023-03-26T01:14:32.890Z,100675.16
2023-03-26T01:15:05.282Z,100677.44
2023-03-26T01:15:37.361Z,100674.72
2023-03-26T01:16:37.322Z,100676.31
2023-03-26T01:17:09.260Z,100669.31
2023-03-26T01:17:42.958Z,100664.28
2023-03-26T01:18:14.555Z,100655.34
2023-03-26T01:18:48.586Z,100665.81
2023-03-26T01:19:22.808Z,100665.03
2023-03-26T01:19:56.903Z,100660.38
2023-03-26T01:20:30.400Z,100665.03
2023-03-26T01:21:05.733Z,100654.13
2023-03-26T01:21:38.728Z,100664.66
2023-03-26T01:22:13.019Z,100655.34
2023-03-26T01:22:56.354Z,100649.53
2023-03-26T01:23:37.257Z,100647.63
2023-03-26T01:24:10.508Z,100649.53
2023-03-26T01:24:42.574Z,100652.25
2023-03-26T01:25:14.412Z,100645.28
2023-03-26T01:25:54.995Z,100642.56
2023-03-26T01:26:47.718Z,100643.34
2023-03-26T01:27:28.393Z,100638.28
2023-03-26T01:28:00.867Z,100637.16
2023-03-26T01:28:35.999Z,100643.34
2023-03-26T01:29:14.744Z,100635.59
2023-03-26T01:30:10.487Z,100636.72
2023-03-26T01:30:51.863Z,100639.88
2023-03-26T01:31:37.091Z,100641.41
2023-03-26T01:32:17.763Z,100637.91
2023-03-26T01:33:18.703Z,100632.50
2023-03-26T01:34:00.533Z,100639.88
2023-03-26T01:34:59.092Z,100634.44
2023-03-26T01:36:00.600Z,100631.72
2023-03-26T01:36:44.656Z,100636.38
2023-03-26T01:37:39.617Z,100626.66
2023-03-26T01:38:48.136Z,100632.44
2023-03-26T01:39:27.494Z,100625.81
2023-03-26T01:40:08.310Z,100633.16
2023-03-26T01:40:49.432Z,100632.44
2023-03-26T01:41:58.376Z,100626.25
2023-03-26T01:42:42.339Z,100633.59
2023-03-26T01:43:26.113Z,100627.03
2023-03-26T01:44:03.113Z,100625.44
2023-03-26T01:44:41.260Z,100632.81
2023-03-26T01:45:21.136Z,100624.66
2023-03-26T01:45:53.782Z,100624.31
2023-03-26T01:47:17.652Z,100627.03
2023-03-26T01:47:49.792Z,100621.59
2023-03-26T01:48:21.457Z,100615.38
2023-03-26T01:48:52.939Z,100618.47
2023-03-26T01:49:28.288Z,100613.47
2023-03-26T01:49:59.678Z,100616.19
2023-03-26T01:50:31.255Z,100616.19
2023-03-26T01:51:04.217Z,100612.31
2023-03-26T01:51:36.019Z,100609.53
2023-03-26T01:52:19.715Z,100613.81
2023-03-26T01:52:51.478Z,100613.47
2023-03-26T01:53:23.136Z,100608.41
2023-03-26T01:53:57.137Z,100612.31
2023-03-26T01:54:30.635Z,100609.97
2023-03-26T01:55:02.789Z,100602.19
2023-03-26T01:55:49.507Z,100610.78
2023-03-26T01:56:45.670Z,100610.03
2023-03-26T01:57:29.693Z,100602.25
2023-03-26T01:58:18.739Z,100599.13
2023-03-26T01:59:05.257Z,100601.91
2023-03-26T01:59:59.009Z,100603.84
2023-03-26T02:00:35.823Z,100600.69
2023-03-26T02:01:24.606Z,100597.63
2023-03-26T02:02:04.843Z,100594.84
2023-03-26T02:02:45.434Z,100596.41
2023-03-26T02:03:39.330Z,100592.13
2023-03-26T02:04:41.112Z,100595.28
2023-03-26T02:05:28.808Z,100592.91
2023-03-26T02:06:15.894Z,100592.91
2023-03-26T02:07:38.000Z,100587.50
2023-03-26T02:08:22.659Z,100588.63
2023-03-26T02:08:59.512Z,100584.78
2023-03-26T02:09:37.002Z,100581.66
2023-03-26T02:10:14.770Z,100581.66
2023-03-26T02:10:51.290Z,100580.50
2023-03-26T02:11:23.426Z,100584.72
2023-03-26T02:11:55.742Z,100580.06
2023-03-26T02:12:29.157Z,100579.66
2023-03-26T02:13:01.277Z,100577.38
2023-03-26T02:13:33.292Z,100575.78
2023-03-26T02:14:06.037Z,100576.22
2023-03-26T02:14:37.603Z,100576.56
2023-03-26T02:15:10.526Z,100572.72
2023-03-26T02:15:55.698Z,100577.00
2023-03-26T02:16:27.465Z,100567.22
2023-03-26T02:17:00.787Z,100572.28
2023-03-26T02:17:32.882Z,100577.00
2023-03-26T02:18:04.398Z,100578.16
2023-03-26T02:18:41.772Z,100569.22
2023-03-26T02:19:16.219Z,100572.72
2023-03-26T02:19:47.996Z,100577.38
2023-03-26T02:20:20.576Z,100577.38
2023-03-26T02:20:55.646Z,100581.66
2023-03-26T02:21:27.900Z,100577.38
2023-03-26T02:21:59.834Z,100573.09
2023-03-26T02:22:31.374Z,100576.22
2023-03-26T02:23:02.998Z,100574.28
2023-03-26T02:23:35.822Z,100582.44
2023-03-26T02:24:07.568Z,100573.50
2023-03-26T02:24:38.995Z,100577.00
2023-03-26T02:25:12.923Z,100577.78
2023-03-26T02:25:44.387Z,100571.50
2023-03-26T02:26:18.309Z,100570.81
2023-03-26T02:26:49.707Z,100570.81
2023-03-26T02:27:21.322Z,100566.09
2023-03-26T02:27:53.432Z,100566.16
2023-03-26T02:28:24.918Z,100564.94
2023-03-26T02:28:57.456Z,100565.38
2023-03-26T02:29:29.730Z,100565.72
2023-03-26T02:30:02.423Z,100561.44
2023-03-26T02:30:33.795Z,100561.44
2023-03-26T02:31:05.669Z,100555.97
2023-03-26T02:31:37.100Z,100554.41
2023-03-26T02:32:13.748Z,100554.81
2023-03-26T02:32:45.179Z,100557.53
2023-03-26T02:33:17.299Z,100558.66
2023-03-26T02:33:49.452Z,100557.09
2023-03-26T02:34:21.026Z,100548.97
2023-03-26T02:34:52.477Z,100559.47
2023-03-26T02:35:23.984Z,100557.88
2023-03-26T02:35:59.476Z,100559.47
2023-03-26T02:36:31.302Z,100559.81
2023-03-26T02:37:02.764Z,100562.53
2023-03-26T02:37:34.132Z,100560.16
2023-03-26T02:38:06.618Z,100555.53
2023-03-26T02:38:38.021Z,100557.88
2023-03-26T02:39:14.340Z,100559.09
2023-03-26T02:39:45.966Z,100557.88
2023-03-26T02:40:22.179Z,100564.09
2023-03-26T02:40:54.690Z,100554.03
2023-03-26T02:41:26.154Z,100547.81
2023-03-26T02:41:57.589Z,100554.03
2023-03-26T02:42:28.978Z,100550.97
2023-03-26T02:43:00.939Z,100551.31
2023-03-26T02:43:32.401Z,100553.69
2023-03-26T02:44:05.718Z,100547.47
2023-03-26T02:44:40.052Z,100546.25
2023-03-26T02:45:11.683Z,100553.69
2023-03-26T02:45:43.105Z,100546.34
2023-03-26T02:46:14.713Z,100545.53
2023-03-26T02:46:46.254Z,100546.34
2023-03-26T02:47:17.989Z,100545.97
2023-03-26T02:47:50.973Z,100546.34
2023-03-26T02:48:22.442Z,100544.41
2023-03-26T02:48:53.770Z,100550.25
2023-03-26T02:49:25.273Z,100551.81
2023-03-26T02:49:56.780Z,100541.69
2023-03-26T02:50:28.618Z,100541.69
2023-03-26T02:51:01.248Z,100547.53
2023-03-26T02:51:34.872Z,100543.69
2023-03-26T02:52:06.753Z,100545.63
2023-03-26T02:52:38.845Z,100552.25
2023-03-26T02:53:11.745Z,100546.03
2023-03-26T02:53:43.245Z,100551.09
2023-03-26T02:54:16.147Z,100546.81
2023-03-26T02:54:47.582Z,100549.19
2023-03-26T02:55:19.096Z,100552.69
2023-03-26T02:55:50.737Z,100548.41
2023-03-26T02:56:22.203Z,100545.69
2023-03-26T02:56:53.636Z,100541.84
2023-03-26T02:57:25.959Z,100542.63
2023-03-26T02:57:57.338Z,100541.84
2023-03-26T02:58:30.063Z,100545.31
2023-03-26T02:59:01.483Z,100542.63
2023-03-26T02:59:32.940Z,100543.41
2023-03-26T03:00:09.319Z,100545.69
2023-03-26T03:00:40.754Z,100544.97
2023-03-26T03:01:13.150Z,100538.75
2023-03-26T03:01:44.672Z,100539.47
2023-03-26T03:02:18.553Z,100544.97
2023-03-26T03:02:50.530Z,100543.41
2023-03-26T03:03:24.289Z,100549.19
2023-03-26T03:03:55.874Z,100537.19
2023-03-26T03:04:27.333Z,100543.34
2023-03-26T03:05:01.596Z,100541.41
2023-03-26T03:05:34.207Z,100542.25
2023-03-26T03:06:05.902Z,100539.13
2023-03-26T03:06:38.646Z,100542.25
2023-03-26T03:07:14.360Z,100542.25
2023-03-26T03:07:46.672Z,100536.06
2023-03-26T03:08:19.270Z,100539.53
2023-03-26T03:08:50.659Z,100534.88
2023-03-26T03:09:22.241Z,100533.69
2023-03-26T03:09:53.611Z,100531.78
2023-03-26T03:10:28.118Z,100541.09
2023-03-26T03:11:11.111Z,100526.75
2023-03-26T03:11:42.514Z,100536.06
2023-03-26T03:12:13.930Z,100523.28
2023-03-26T03:12:45.389Z,100525.59
2023-03-26T03:13:16.809Z,100526.38
2023-03-26T03:13:48.291Z,100532.59
2023-03-26T03:14:19.728Z,100525.59
2023-03-26T03:14:51.201Z,100528.31
2023-03-26T03:15:22.731Z,100522.88
2023-03-26T03:15:55.094Z,100525.25
2023-03-26T03:16:27.254Z,100537.66
2023-03-26T03:16:58.724Z,100527.16
2023-03-26T03:17:30.107Z,100536.09
2023-03-26T03:18:02.344Z,100536.09
2023-03-26T03:18:33.742Z,100530.31
2023-03-26T03:19:06.092Z,100527.16
2023-03-26T03:19:37.819Z,100519.03
2023-03-26T03:20:09.474Z,100526.03
2023-03-26T03:20:41.580Z,100517.47
2023-03-26T03:21:13.072Z,100522.53
2023-03-26T03:21:44.579Z,100524.47
2023-03-26T03:22:16.076Z,100517.09
2023-03-26T03:22:47.454Z,100517.47
2023-03-26T03:23:19.064Z,100530.31
2023-03-26T03:23:50.857Z,100520.97
2023-03-26T03:24:23.433Z,100512.81
2023-03-26T03:24:57.692Z,100513.25
2023-03-26T03:25:29.082Z,100517.09
2023-03-26T03:26:00.523Z,100515.19
2023-03-26T03:26:31.916Z,100507.03
2023-03-26T03:27:04.211Z,100519.09
2023-03-26T03:27:39.320Z,100514.09
2023-03-26T03:28:11.149Z,100511.38
2023-03-26T03:28:45.086Z,100515.66
2023-03-26T03:29:16.680Z,100507.91
2023-03-26T03:29:48.125Z,100513.75
2023-03-26T03:30:19.518Z,100507.91
2023-03-26T03:30:54.037Z,100512.19
2023-03-26T03:31:26.480Z,100516.03
2023-03-26T03:32:00.270Z,100506.75
2023-03-26T03:32:31.730Z,100507.53
2023-03-26T03:33:03.601Z,100509.47
2023-03-26T03:33:35.669Z,100507.19
2023-03-26T03:34:07.150Z,100511.44
2023-03-26T03:34:38.758Z,100503.69
2023-03-26T03:35:10.491Z,100504.09
2023-03-26T03:35:42.625Z,100505.66
2023-03-26T03:36:20.899Z,100508.38
2023-03-26T03:36:53.387Z,100498.63
2023-03-26T03:37:25.175Z,100495.19
2023-03-26T03:37:57.985Z,100504.09
2023-03-26T03:38:29.344Z,100504.53
2023-03-26T03:39:02.421Z,100502.59
2023-03-26T03:39:34.234Z,100508.81
2023-03-26T03:40:07.828Z,100501.81
2023-03-26T03:40:39.243Z,100498.31
2023-03-26T03:41:11.269Z,100496.38
2023-03-26T03:41:42.832Z,100499.47
2023-03-26T03:42:14.239Z,100501.47
2023-03-26T03:42:46.497Z,100504.94
2023-03-26T03:43:18.101Z,100501.09
2023-03-26T03:43:50.116Z,100505.75
2023-03-26T03:44:21.739Z,100503.44
2023-03-26T03:44:53.211Z,100510.81
2023-03-26T03:45:24.561Z,100499.19
2023-03-26T03:45:56.402Z,100494.13
2023-03-26T03:46:28.370Z,100504.22
2023-03-26T03:46:59.841Z,100502.69
2023-03-26T03:47:31.442Z,100501.91
2023-03-26T03:48:03.527Z,100505.03
2023-03-26T03:48:38.318Z,100500.41
2023-03-26T03:49:09.733Z,100497.69
2023-03-26T03:49:41.414Z,100501.19
2023-03-26T03:50:12.846Z,100503.91
2023-03-26T03:50:44.273Z,100497.69
2023-03-26T03:51:18.218Z,100497.34
2023-03-26T03:51:49.659Z,100498.91
2023-03-26T03:52:20.989Z,100503.53
2023-03-26T03:52:52.542Z,100500.84
2023-03-26T03:53:26.147Z,100502.03
2023-03-26T03:53:57.784Z,100493.06
2023-03-26T03:54:29.284Z,100502.81
2023-03-26T03:55:00.701Z,100503.53
2023-03-26T03:55:32.339Z,100498.97
2023-03-26T03:56:10.571Z,100498.91
2023-03-26T03:56:42.035Z,100498.97
2023-03-26T03:57:15.930Z,100507.53
2023-03-26T03:57:47.722Z,100509.44
2023-03-26T03:58:22.341Z,100511.81
2023-03-26T03:58:53.833Z,100494.69
2023-03-26T03:59:25.305Z,100505.59
2023-03-26T03:59:59.561Z,100501.31
2023-03-26T04:00:30.945Z,100496.66
2023-03-26T04:01:03.150Z,100495.47
2023-03-26T04:01:34.960Z,100493.53
2023-03-26T04:02:06.323Z,100498.59
2023-03-26T04:02:38.481Z,100493.19
2023-03-26T04:03:14.351Z,100498.66
2023-03-26T04:03:46.927Z,100489.31
2023-03-26T04:04:18.600Z,100496.31
2023-03-26T04:04:50.274Z,100497.88
2023-03-26T04:05:21.821Z,100494.38
2023-03-26T04:05:55.179Z,100498.31
2023-03-26T04:06:30.188Z,100491.31
2023-03-26T04:07:02.200Z,100500.22
2023-03-26T04:07:33.634Z,100492.09
2023-03-26T04:08:05.214Z,100492.88
2023-03-26T04:08:36.805Z,100495.59
2023-03-26T04:09:09.856Z,100494.03
2023-03-26T04:09:41.283Z,100488.22
2023-03-26T04:10:15.328Z,100493.66
2023-03-26T04:10:47.234Z,100492.44
2023-03-26T04:11:18.662Z,100484.31
2023-03-26T04:11:50.948Z,100485.88
2023-03-26T04:12:22.373Z,100482.75
2023-03-26T04:12:53.756Z,100487.03
2023-03-26T04:13:25.291Z,100485.88
2023-03-26T04:13:56.698Z,100486.59
2023-03-26T04:14:28.137Z,100482.75
2023-03-26T04:14:59.602Z,100481.19
2023-03-26T04:15:31.021Z,100478.88
2023-03-26T04:16:02.719Z,100483.16
2023-03-26T04:16:34.192Z,100482.75
2023-03-26T04:17:06.069Z,100479.66
2023-03-26T04:17:42.434Z,100483.16
2023-03-26T04:18:14.475Z,100483.16
2023-03-26T04:18:46.635Z,100477.75
2023-03-26T04:19:18.019Z,100479.31
2023-03-26T04:19:52.855Z,100475.81
2023-03-26T04:20:24.441Z,100474.66
2023-03-26T04:20:55.971Z,100471.97
2023-03-26T04:21:30.499Z,100469.19
2023-03-26T04:22:02.613Z,100465.31
2023-03-26T04:22:36.408Z,100468.47
2023-03-26T04:23:08.554Z,100465.75
2023-03-26T04:23:40.176Z,100465.31
2023-03-26T04:24:11.995Z,100469.59
2023-03-26T04:24:43.397Z,100461.88
2023-03-26T04:25:15.557Z,100460.31
2023-03-26T04:25:53.807Z,100462.25
2023-03-26T04:26:25.538Z,100464.19
2023-03-26T04:27:01.133Z,100463.44
2023-03-26T04:27:36.633Z,100455.31
2023-03-26T04:28:09.019Z,100458.75
2023-03-26T04:28:50.755Z,100458.75
2023-03-26T04:29:25.657Z,100457.25
2023-03-26T04:29:58.215Z,100458.03
2023-03-26T04:30:29.692Z,100455.72
2023-03-26T04:31:03.909Z,100462.28
2023-03-26T04:31:36.147Z,100454.13
2023-03-26T04:32:12.664Z,100457.63
2023-03-26T04:32:45.042Z,100452.59
2023-03-26T04:33:16.641Z,100448.31
2023-03-26T04:33:48.014Z,100445.97
2023-03-26T04:34:26.515Z,100444.81
2023-03-26T04:35:03.410Z,100450.25
2023-03-26T04:35:35.002Z,100453.78
2023-03-26T04:36:06.915Z,100447.94
2023-03-26T04:36:40.651Z,100454.13
2023-03-26T04:37:26.452Z,100447.19
2023-03-26T04:37:58.220Z,100444.06
2023-03-26T04:38:41.427Z,100444.06
2023-03-26T04:39:13.345Z,100448.34
2023-03-26T04:39:44.892Z,100440.56
2023-03-26T04:40:21.949Z,100441.78
2023-03-26T04:40:53.438Z,100443.72
2023-03-26T04:41:27.706Z,100437.50
2023-03-26T04:41:59.071Z,100432.84
2023-03-26T04:42:33.191Z,100438.66
2023-03-26T04:43:04.626Z,100439.44
2023-03-26T04:43:36.025Z,100440.56
2023-03-26T04:44:07.805Z,100430.50
2023-03-26T04:44:42.293Z,100432.81
2023-03-26T04:45:16.329Z,100430.50
2023-03-26T04:45:48.049Z,100424.69
2023-03-26T04:46:23.703Z,100425.06
2023-03-26T04:46:55.434Z,100419.63
2023-03-26T04:47:27.011Z,100427.00
2023-03-26T04:47:58.760Z,100424.28
2023-03-26T04:48:30.885Z,100425.06
2023-03-26T04:49:02.351Z,100432.06
2023-03-26T04:49:33.730Z,100417.69
2023-03-26T04:50:09.371Z,100421.22
2023-03-26T04:50:46.158Z,100422.00
2023-03-26T04:51:21.942Z,100419.66
2023-03-26T04:51:53.371Z,100422.78
2023-03-26T04:52:24.923Z,100420.84
2023-03-26T04:52:57.345Z,100417.72
2023-03-26T04:53:28.918Z,100407.66
2023-03-26T04:54:02.443Z,100421.63
2023-03-26T04:54:33.878Z,100416.16
2023-03-26T04:55:19.479Z,100413.88
2023-03-26T04:55:57.060Z,100419.72
2023-03-26T04:56:41.107Z,100417.78
2023-03-26T04:57:21.396Z,100420.84
2023-03-26T04:58:05.337Z,100417.00
2023-03-26T04:58:36.722Z,100416.22
2023-03-26T04:59:13.771Z,100414.28
2023-03-26T04:59:45.224Z,100413.88
2023-03-26T05:00:19.465Z,100413.88
2023-03-26T05:00:50.998Z,100410.38
2023-03-26T05:01:24.567Z,100403.78
2023-03-26T05:01:58.112Z,100401.88
2023-03-26T05:02:32.419Z,100406.91
2023-03-26T05:03:04.269Z,100407.28
2023-03-26T05:03:39.349Z,100404.56
2023-03-26T05:04:10.804Z,100394.09
2023-03-26T05:04:43.899Z,100403.00
2023-03-26T05:05:16.686Z,100406.13
2023-03-26T05:05:49.621Z,100394.50
2023-03-26T05:06:21.856Z,100392.53
2023-03-26T05:06:53.851Z,100395.66
2023-03-26T05:07:25.329Z,100390.59
2023-03-26T05:07:56.896Z,100391.38
2023-03-26T05:08:29.446Z,100393.72
2023-03-26T05:09:02.140Z,100394.88
2023-03-26T05:09:33.583Z,100394.50
2023-03-26T05:10:05.533Z,100388.66
2023-03-26T05:11:26.145Z,100399.56
2023-03-26T05:11:58.495Z,100397.63
2023-03-26T05:12:30.264Z,100389.50
2023-03-26T05:13:01.767Z,100390.28
2023-03-26T05:13:33.112Z,100398.41
2023-03-26T05:14:04.529Z,100389.06
2023-03-26T05:14:36.246Z,100388.28
2023-03-26T05:15:09.148Z,100390.22
2023-03-26T05:15:40.716Z,100392.94
2023-03-26T05:16:12.296Z,100385.94
2023-03-26T05:16:46.424Z,100392.16
2023-03-26T05:17:19.010Z,100391.38
2023-03-26T05:17:51.302Z,100391.38
2023-03-26T05:18:22.827Z,100390.22
2023-03-26T05:18:54.704Z,100392.56
2023-03-26T05:19:26.263Z,100387.50
2023-03-26T05:19:57.741Z,100387.88
2023-03-26T05:20:31.164Z,100397.63
2023-03-26T05:21:02.798Z,100394.13
2023-03-26T05:21:34.776Z,100394.50
2023-03-26T05:22:06.151Z,100396.06
2023-03-26T05:22:38.802Z,100382.88
2023-03-26T05:23:10.912Z,100384.44
2023-03-26T05:23:42.284Z,100393.34
2023-03-26T05:24:13.637Z,100387.50
2023-03-26T05:24:45.105Z,100385.22
2023-03-26T05:25:17.790Z,100377.81
2023-03-26T05:25:49.455Z,100390.66
2023-03-26T05:26:21.159Z,100379.75
2023-03-26T05:26:52.558Z,100376.25
2023-03-26T05:27:23.948Z,100381.31
2023-03-26T05:27:55.610Z,100375.88
2023-03-26T05:28:28.145Z,100374.38
2023-03-26T05:29:00.212Z,100380.56
2023-03-26T05:29:31.594Z,100365.03
2023-03-26T05:30:05.296Z,100369.72
2023-03-26T05:30:36.795Z,100369.72
2023-03-26T05:31:08.522Z,100369.78
2023-03-26T05:31:39.974Z,100373.63
2023-03-26T05:32:12.153Z,100375.94
2023-03-26T05:32:44.061Z,100375.56
2023-03-26T05:33:16.368Z,100374.84
2023-03-26T05:33:48.977Z,100374.84
2023-03-26T05:34:23.979Z,100369.41
2023-03-26T05:34:55.349Z,100377.56
2023-03-26T05:35:26.761Z,100369.41
2023-03-26T05:36:01.333Z,100370.97
2023-03-26T05:36:33.496Z,100370.97
2023-03-26T05:37:06.773Z,100371.75
2023-03-26T05:37:38.861Z,100372.53
2023-03-26T05:38:10.853Z,100368.25
2023-03-26T05:38:47.266Z,100369.81
2023-03-26T05:39:19.134Z,100370.19
2023-03-26T05:39:54.960Z,100369.47
2023-03-26T05:40:26.425Z,100361.63
2023-03-26T05:41:03.448Z,100366.31
2023-03-26T05:41:35.299Z,100366.31
2023-03-26T05:42:07.788Z,100363.19
2023-03-26T05:42:40.447Z,100368.25
2023-03-26T05:43:11.891Z,100368.25
2023-03-26T05:43:44.870Z,100360.44
2023-03-26T05:44:16.316Z,100362.78
2023-03-26T05:44:47.725Z,100363.94
2023-03-26T05:45:19.369Z,100358.13
2023-03-26T05:45:50.858Z,100355.78
2023-03-26T05:46:23.339Z,100358.56
2023-03-26T05:46:55.338Z,100366.31
2023-03-26T05:47:27.425Z,100354.66
2023-03-26T05:47:59.104Z,100357.00
2023-03-26T05:48:31.305Z,100364.41
2023-03-26T05:49:02.916Z,100363.63
2023-03-26T05:49:34.287Z,100363.63
2023-03-26T05:50:06.678Z,100354.28
2023-03-26T05:50:38.067Z,100360.47
2023-03-26T05:51:09.691Z,100358.97
2023-03-26T05:51:41.130Z,100356.25
2023-03-26T05:52:15.222Z,100350.41
2023-03-26T05:52:46.634Z,100357.47
2023-03-26T05:53:18.927Z,100354.28
2023-03-26T05:53:50.312Z,100351.56
2023-03-26T05:54:21.867Z,100355.84
2023-03-26T05:54:53.302Z,100355.84
2023-03-26T05:55:24.674Z,100357.41
2023-03-26T05:55:59.046Z,100356.63
2023-03-26T05:56:30.626Z,100354.69
2023-03-26T05:57:02.025Z,100355.84
2023-03-26T05:57:35.352Z,100351.97
2023-03-26T05:58:07.059Z,100361.28
2023-03-26T05:58:38.476Z,100339.50
2023-03-26T05:59:09.900Z,100356.63
2023-03-26T05:59:41.600Z,100348.13
2023-03-26T06:00:15.005Z,100351.19
2023-03-26T06:00:48.471Z,100351.97
2023-03-26T06:01:20.737Z,100343.41
2023-03-26T06:01:54.415Z,100348.13
2023-03-26T06:02:26.169Z,100345.78
2023-03-26T06:02:58.732Z,100356.31
2023-03-26T06:03:30.683Z,100358.59
2023-03-26T06:04:02.395Z,100347.75
2023-03-26T06:04:34.043Z,100349.69
2023-03-26T06:05:06.067Z,100352.03
2023-03-26T06:05:38.972Z,100355.53
2023-03-26T06:06:15.637Z,100350.47
2023-03-26T06:06:47.125Z,100346.59
2023-03-26T06:07:19.872Z,100350.09
2023-03-26T06:07:51.578Z,100346.59
2023-03-26T06:08:23.511Z,100346.59
2023-03-26T06:09:01.692Z,100343.88
2023-03-26T06:09:34.205Z,100347.38
2023-03-26T06:10:06.221Z,100348.94
2023-03-26T06:10:39.215Z,100341.59
2023-03-26T06:11:12.532Z,100338.09
2023-03-26T06:11:44.243Z,100334.19
2023-03-26T06:12:15.808Z,100340.03
2023-03-26T06:12:47.345Z,100336.53
2023-03-26T06:13:19.014Z,100336.53
2023-03-26T06:13:50.430Z,100329.94
2023-03-26T06:14:22.773Z,100336.16
2023-03-26T06:14:54.251Z,100331.53
2023-03-26T06:15:25.677Z,100330.38
2023-03-26T06:15:58.310Z,100329.59
2023-03-26T06:16:29.742Z,100329.59
2023-03-26T06:17:01.273Z,100321.81
2023-03-26T06:17:32.770Z,100330.38
2023-03-26T06:18:04.328Z,100326.09
2023-03-26T06:18:36.137Z,100329.19
2023-03-26T06:19:07.834Z,100327.66
2023-03-26T06:19:39.656Z,100336.56
2023-03-26T06:20:12.362Z,100326.47
2023-03-26T06:20:44.421Z,100334.22
2023-03-26T06:21:15.881Z,100323.38
2023-03-26T06:21:47.360Z,100329.94
2023-03-26T06:22:18.786Z,100330.38
2023-03-26T06:22:50.250Z,100319.09
2023-03-26T06:23:23.101Z,100321.44
2023-03-26T06:23:55.369Z,100314.03
2023-03-26T06:24:27.084Z,100320.66
2023-03-26T06:24:58.638Z,100319.09
2023-03-26T06:25:30.209Z,100326.09
2023-03-26T06:26:01.643Z,100318.72
2023-03-26T06:26:33.111Z,100320.25
2023-03-26T06:27:04.595Z,100314.44
2023-03-26T06:27:36.200Z,100314.81
2023-03-26T06:28:07.691Z,100316.78